sensor_id;sensor_type;location;lat;lon;timestamp;temperature;humidity
84393;DHT22;74592;48.846;2.358;2024-02-15T00:00:51;15.80;57.40
84393;DHT22;74592;48.846;2.358;2024-02-15T00:03:17;15.80;57.10
84393;DHT22;74592;48.846;2.358;2024-02-15T00:05:44;15.80;57.30
84393;DHT22;74592;48.846;2.358;2024-02-15T00:08:09;15.80;57.10
84393;DHT22;74592;48.846;2.358;2024-02-15T00:10:35;15.80;56.80
84393;DHT22;74592;48.846;2.358;2024-02-15T00:13:00;15.80;57.20
84393;DHT22;74592;48.846;2.358;2024-02-15T00:15:26;15.80;56.90
84393;DHT22;74592;48.846;2.358;2024-02-15T00:17:51;15.80;56.90
84393;DHT22;74592;48.846;2.358;2024-02-15T00:20:17;15.70;56.70
84393;DHT22;74592;48.846;2.358;2024-02-15T00:22:43;15.70;57.10
84393;DHT22;74592;48.846;2.358;2024-02-15T00:25:09;15.70;56.90
84393;DHT22;74592;48.846;2.358;2024-02-15T00:27:36;15.70;57.30
84393;DHT22;74592;48.846;2.358;2024-02-15T00:30:03;15.70;57.00
84393;DHT22;74592;48.846;2.358;2024-02-15T00:32:31;15.70;56.70
84393;DHT22;74592;48.846;2.358;2024-02-15T00:34:57;15.70;56.60
84393;DHT22;74592;48.846;2.358;2024-02-15T00:37:23;15.70;56.80
84393;DHT22;74592;48.846;2.358;2024-02-15T00:39:48;15.70;56.70
84393;DHT22;74592;48.846;2.358;2024-02-15T00:42:14;15.70;56.90
84393;DHT22;74592;48.846;2.358;2024-02-15T00:44:41;15.70;56.80
84393;DHT22;74592;48.846;2.358;2024-02-15T00:47:07;15.80;56.90
84393;DHT22;74592;48.846;2.358;2024-02-15T00:49:33;15.80;56.50
84393;DHT22;74592;48.846;2.358;2024-02-15T00:51:59;15.70;56.40
84393;DHT22;74592;48.846;2.358;2024-02-15T00:54:24;15.70;56.30
84393;DHT22;74592;48.846;2.358;2024-02-15T00:56:51;15.60;56.50
84393;DHT22;74592;48.846;2.358;2024-02-15T00:59:17;15.60;56.40
84393;DHT22;74592;48.846;2.358;2024-02-15T01:01:43;15.60;56.60
84393;DHT22;74592;48.846;2.358;2024-02-15T01:04:10;15.60;56.60
84393;DHT22;74592;48.846;2.358;2024-02-15T01:06:35;15.70;56.50
84393;DHT22;74592;48.846;2.358;2024-02-15T01:09:02;15.60;56.00
84393;DHT22;74592;48.846;2.358;2024-02-15T01:11:29;15.60;56.20
84393;DHT22;74592;48.846;2.358;2024-02-15T01:13:57;15.60;56.00
84393;DHT22;74592;48.846;2.358;2024-02-15T01:16:23;15.60;55.90
84393;DHT22;74592;48.846;2.358;2024-02-15T01:18:50;15.60;55.90
84393;DHT22;74592;48.846;2.358;2024-02-15T01:21:15;15.60;55.80
84393;DHT22;74592;48.846;2.358;2024-02-15T01:23:42;15.60;55.80
84393;DHT22;74592;48.846;2.358;2024-02-15T01:26:09;15.60;55.80
84393;DHT22;74592;48.846;2.358;2024-02-15T01:28:35;15.60;56.00
84393;DHT22;74592;48.846;2.358;2024-02-15T01:31:00;15.60;56.10
84393;DHT22;74592;48.846;2.358;2024-02-15T01:33:27;15.70;56.00
84393;DHT22;74592;48.846;2.358;2024-02-15T01:35:52;15.70;55.80
84393;DHT22;74592;48.846;2.358;2024-02-15T01:38:18;15.70;55.60
84393;DHT22;74592;48.846;2.358;2024-02-15T01:40:47;15.60;55.90
84393;DHT22;74592;48.846;2.358;2024-02-15T01:43:12;15.60;55.90
84393;DHT22;74592;48.846;2.358;2024-02-15T01:45:38;15.60;56.00
84393;DHT22;74592;48.846;2.358;2024-02-15T01:48:04;15.60;55.90
84393;DHT22;74592;48.846;2.358;2024-02-15T01:50:31;15.60;55.50
84393;DHT22;74592;48.846;2.358;2024-02-15T01:53:01;15.60;55.70
84393;DHT22;74592;48.846;2.358;2024-02-15T01:55:27;15.60;55.80
84393;DHT22;74592;48.846;2.358;2024-02-15T01:57:53;15.60;55.70
84393;DHT22;74592;48.846;2.358;2024-02-15T02:00:19;15.60;55.90
84393;DHT22;74592;48.846;2.358;2024-02-15T02:02:45;15.50;55.70
84393;DHT22;74592;48.846;2.358;2024-02-15T02:05:12;15.50;56.00
84393;DHT22;74592;48.846;2.358;2024-02-15T02:07:38;15.50;55.90
84393;DHT22;74592;48.846;2.358;2024-02-15T02:10:07;15.50;55.90
84393;DHT22;74592;48.846;2.358;2024-02-15T02:12:33;15.40;55.70
84393;DHT22;74592;48.846;2.358;2024-02-15T02:14:58;15.40;56.00
84393;DHT22;74592;48.846;2.358;2024-02-15T02:17:24;15.40;55.90
84393;DHT22;74592;48.846;2.358;2024-02-15T02:19:50;15.40;55.90
84393;DHT22;74592;48.846;2.358;2024-02-15T02:22:16;15.50;56.10
84393;DHT22;74592;48.846;2.358;2024-02-15T02:24:59;15.50;55.60
84393;DHT22;74592;48.846;2.358;2024-02-15T02:27:29;15.40;55.50
84393;DHT22;74592;48.846;2.358;2024-02-15T02:29:55;15.40;55.50
84393;DHT22;74592;48.846;2.358;2024-02-15T02:32:22;15.30;55.60
84393;DHT22;74592;48.846;2.358;2024-02-15T02:34:48;15.30;55.60
84393;DHT22;74592;48.846;2.358;2024-02-15T02:37:14;15.30;55.90
84393;DHT22;74592;48.846;2.358;2024-02-15T02:39:39;15.30;55.70
84393;DHT22;74592;48.846;2.358;2024-02-15T02:42:08;15.30;55.50
84393;DHT22;74592;48.846;2.358;2024-02-15T02:44:33;15.30;55.50
84393;DHT22;74592;48.846;2.358;2024-02-15T02:47:00;15.40;55.40
84393;DHT22;74592;48.846;2.358;2024-02-15T02:49:26;15.40;55.10
84393;DHT22;74592;48.846;2.358;2024-02-15T02:51:52;15.40;54.90
84393;DHT22;74592;48.846;2.358;2024-02-15T02:54:17;15.40;55.60
84393;DHT22;74592;48.846;2.358;2024-02-15T02:56:43;15.40;54.90
84393;DHT22;74592;48.846;2.358;2024-02-15T02:59:10;15.30;54.80
84393;DHT22;74592;48.846;2.358;2024-02-15T03:01:36;15.40;54.90
84393;DHT22;74592;48.846;2.358;2024-02-15T03:04:02;15.30;55.30
84393;DHT22;74592;48.846;2.358;2024-02-15T03:06:28;15.30;55.00
84393;DHT22;74592;48.846;2.358;2024-02-15T03:08:53;15.30;54.90
84393;DHT22;74592;48.846;2.358;2024-02-15T03:11:23;15.40;55.10
84393;DHT22;74592;48.846;2.358;2024-02-15T03:13:48;15.30;55.10
84393;DHT22;74592;48.846;2.358;2024-02-15T03:16:14;15.40;55.10
84393;DHT22;74592;48.846;2.358;2024-02-15T03:18:39;15.30;55.30
84393;DHT22;74592;48.846;2.358;2024-02-15T03:21:06;15.40;55.00
84393;DHT22;74592;48.846;2.358;2024-02-15T03:23:34;15.40;54.90
84393;DHT22;74592;48.846;2.358;2024-02-15T03:26:01;15.40;54.90
84393;DHT22;74592;48.846;2.358;2024-02-15T03:28:27;15.40;54.90
84393;DHT22;74592;48.846;2.358;2024-02-15T03:30:53;15.40;54.70
84393;DHT22;74592;48.846;2.358;2024-02-15T03:33:18;15.30;54.80
84393;DHT22;74592;48.846;2.358;2024-02-15T03:35:44;15.30;54.70
84393;DHT22;74592;48.846;2.358;2024-02-15T03:38:09;15.30;54.60
84393;DHT22;74592;48.846;2.358;2024-02-15T03:40:37;15.30;54.60
84393;DHT22;74592;48.846;2.358;2024-02-15T03:43:08;15.30;54.70
84393;DHT22;74592;48.846;2.358;2024-02-15T03:45:34;15.30;55.00
84393;DHT22;74592;48.846;2.358;2024-02-15T03:48:00;15.30;54.60
84393;DHT22;74592;48.846;2.358;2024-02-15T03:50:25;15.30;54.60
84393;DHT22;74592;48.846;2.358;2024-02-15T03:52:51;15.30;54.60
84393;DHT22;74592;48.846;2.358;2024-02-15T03:55:17;15.30;54.50
84393;DHT22;74592;48.846;2.358;2024-02-15T03:57:42;15.30;54.60
84393;DHT22;74592;48.846;2.358;2024-02-15T04:00:09;15.30;54.60
84393;DHT22;74592;48.846;2.358;2024-02-15T04:02:40;15.30;54.20
84393;DHT22;74592;48.846;2.358;2024-02-15T04:05:07;15.30;54.30
84393;DHT22;74592;48.846;2.358;2024-02-15T04:07:33;15.30;54.40
84393;DHT22;74592;48.846;2.358;2024-02-15T04:09:58;15.20;54.30
84393;DHT22;74592;48.846;2.358;2024-02-15T04:12:26;15.30;54.40
84393;DHT22;74592;48.846;2.358;2024-02-15T04:14:52;15.30;54.20
84393;DHT22;74592;48.846;2.358;2024-02-15T04:17:19;15.20;54.20
84393;DHT22;74592;48.846;2.358;2024-02-15T04:19:47;15.20;54.20
84393;DHT22;74592;48.846;2.358;2024-02-15T04:22:13;15.20;54.10
84393;DHT22;74592;48.846;2.358;2024-02-15T04:24:42;15.20;54.20
84393;DHT22;74592;48.846;2.358;2024-02-15T04:27:07;15.30;54.20
84393;DHT22;74592;48.846;2.358;2024-02-15T04:29:34;15.20;54.20
84393;DHT22;74592;48.846;2.358;2024-02-15T04:32:00;15.30;54.20
84393;DHT22;74592;48.846;2.358;2024-02-15T04:34:25;15.30;54.20
84393;DHT22;74592;48.846;2.358;2024-02-15T04:36:51;15.30;54.10
84393;DHT22;74592;48.846;2.358;2024-02-15T04:39:21;15.30;54.10
84393;DHT22;74592;48.846;2.358;2024-02-15T04:41:53;15.30;54.20
84393;DHT22;74592;48.846;2.358;2024-02-15T04:44:19;15.30;53.90
84393;DHT22;74592;48.846;2.358;2024-02-15T04:46:53;15.30;54.10
84393;DHT22;74592;48.846;2.358;2024-02-15T04:49:20;15.30;54.10
84393;DHT22;74592;48.846;2.358;2024-02-15T04:51:46;15.20;53.70
84393;DHT22;74592;48.846;2.358;2024-02-15T04:54:13;15.30;54.20
84393;DHT22;74592;48.846;2.358;2024-02-15T04:56:40;15.20;54.10
84393;DHT22;74592;48.846;2.358;2024-02-15T04:59:06;15.30;54.00
84393;DHT22;74592;48.846;2.358;2024-02-15T05:01:40;15.30;54.00
84393;DHT22;74592;48.846;2.358;2024-02-15T05:04:08;15.30;53.80
84393;DHT22;74592;48.846;2.358;2024-02-15T05:06:34;15.30;53.80
84393;DHT22;74592;48.846;2.358;2024-02-15T05:08:59;15.30;53.50
84393;DHT22;74592;48.846;2.358;2024-02-15T05:11:26;15.30;53.70
84393;DHT22;74592;48.846;2.358;2024-02-15T05:13:51;15.20;53.70
84393;DHT22;74592;48.846;2.358;2024-02-15T05:16:18;15.20;53.30
84393;DHT22;74592;48.846;2.358;2024-02-15T05:18:44;15.20;53.60
84393;DHT22;74592;48.846;2.358;2024-02-15T05:21:11;15.20;53.70
84393;DHT22;74592;48.846;2.358;2024-02-15T05:23:38;15.20;53.70
84393;DHT22;74592;48.846;2.358;2024-02-15T05:26:06;15.20;53.40
84393;DHT22;74592;48.846;2.358;2024-02-15T05:28:32;15.20;53.60
84393;DHT22;74592;48.846;2.358;2024-02-15T05:31:17;15.20;53.20
84393;DHT22;74592;48.846;2.358;2024-02-15T05:33:49;15.20;53.50
84393;DHT22;74592;48.846;2.358;2024-02-15T05:36:15;15.10;54.00
84393;DHT22;74592;48.846;2.358;2024-02-15T05:38:42;15.10;53.50
84393;DHT22;74592;48.846;2.358;2024-02-15T05:41:10;15.10;53.50
84393;DHT22;74592;48.846;2.358;2024-02-15T05:43:37;15.10;53.80
84393;DHT22;74592;48.846;2.358;2024-02-15T05:46:03;15.10;54.00
84393;DHT22;74592;48.846;2.358;2024-02-15T05:48:30;15.10;53.90
84393;DHT22;74592;48.846;2.358;2024-02-15T05:50:56;15.10;53.70
84393;DHT22;74592;48.846;2.358;2024-02-15T05:53:23;15.10;53.90
84393;DHT22;74592;48.846;2.358;2024-02-15T05:55:49;15.10;53.60
84393;DHT22;74592;48.846;2.358;2024-02-15T05:58:15;15.10;53.90
84393;DHT22;74592;48.846;2.358;2024-02-15T06:00:41;15.10;53.50
84393;DHT22;74592;48.846;2.358;2024-02-15T06:03:07;15.10;53.90
84393;DHT22;74592;48.846;2.358;2024-02-15T06:05:35;15.10;53.90
84393;DHT22;74592;48.846;2.358;2024-02-15T06:08:00;15.00;53.80
84393;DHT22;74592;48.846;2.358;2024-02-15T06:10:26;15.00;53.80
84393;DHT22;74592;48.846;2.358;2024-02-15T06:12:56;15.00;53.90
84393;DHT22;74592;48.846;2.358;2024-02-15T06:15:23;15.00;53.90
84393;DHT22;74592;48.846;2.358;2024-02-15T06:17:49;15.00;53.80
84393;DHT22;74592;48.846;2.358;2024-02-15T06:20:15;15.00;53.90
84393;DHT22;74592;48.846;2.358;2024-02-15T06:22:43;15.00;53.80
84393;DHT22;74592;48.846;2.358;2024-02-15T06:25:10;15.00;53.70
84393;DHT22;74592;48.846;2.358;2024-02-15T06:27:37;15.00;53.40
84393;DHT22;74592;48.846;2.358;2024-02-15T06:30:07;14.90;53.50
84393;DHT22;74592;48.846;2.358;2024-02-15T06:33:08;14.90;53.90
84393;DHT22;74592;48.846;2.358;2024-02-15T06:35:52;14.90;54.70
84393;DHT22;74592;48.846;2.358;2024-02-15T06:38:36;14.90;54.10
84393;DHT22;74592;48.846;2.358;2024-02-15T06:41:21;14.80;53.90
84393;DHT22;74592;48.846;2.358;2024-02-15T06:43:46;14.90;54.20
84393;DHT22;74592;48.846;2.358;2024-02-15T06:46:12;14.80;54.10
84393;DHT22;74592;48.846;2.358;2024-02-15T06:48:42;14.70;54.20
84393;DHT22;74592;48.846;2.358;2024-02-15T06:51:14;14.70;54.80
84393;DHT22;74592;48.846;2.358;2024-02-15T06:53:42;14.70;54.70
84393;DHT22;74592;48.846;2.358;2024-02-15T06:56:11;14.70;54.20
84393;DHT22;74592;48.846;2.358;2024-02-15T06:58:37;14.70;54.10
84393;DHT22;74592;48.846;2.358;2024-02-15T07:01:02;14.70;54.20
84393;DHT22;74592;48.846;2.358;2024-02-15T07:03:28;14.70;54.10
84393;DHT22;74592;48.846;2.358;2024-02-15T07:05:55;14.70;54.30
84393;DHT22;74592;48.846;2.358;2024-02-15T07:08:21;14.70;53.90
84393;DHT22;74592;48.846;2.358;2024-02-15T07:10:50;14.70;54.10
84393;DHT22;74592;48.846;2.358;2024-02-15T07:13:17;14.60;54.00
84393;DHT22;74592;48.846;2.358;2024-02-15T07:15:45;14.70;54.20
84393;DHT22;74592;48.846;2.358;2024-02-15T07:18:12;14.60;54.10
84393;DHT22;74592;48.846;2.358;2024-02-15T07:20:41;14.60;54.40
84393;DHT22;74592;48.846;2.358;2024-02-15T07:23:07;14.70;54.50
84393;DHT22;74592;48.846;2.358;2024-02-15T07:25:32;14.60;54.20
84393;DHT22;74592;48.846;2.358;2024-02-15T07:27:58;14.70;54.60
84393;DHT22;74592;48.846;2.358;2024-02-15T07:30:24;14.70;54.10
84393;DHT22;74592;48.846;2.358;2024-02-15T07:32:50;14.70;53.80
84393;DHT22;74592;48.846;2.358;2024-02-15T07:35:16;14.70;53.80
84393;DHT22;74592;48.846;2.358;2024-02-15T07:37:53;14.70;53.70
84393;DHT22;74592;48.846;2.358;2024-02-15T07:40:23;14.70;53.50
84393;DHT22;74592;48.846;2.358;2024-02-15T07:42:54;14.70;53.60
84393;DHT22;74592;48.846;2.358;2024-02-15T07:45:20;14.70;53.70
84393;DHT22;74592;48.846;2.358;2024-02-15T07:47:45;14.70;53.70
84393;DHT22;74592;48.846;2.358;2024-02-15T07:50:18;14.70;53.40
84393;DHT22;74592;48.846;2.358;2024-02-15T07:52:49;14.70;53.60
84393;DHT22;74592;48.846;2.358;2024-02-15T07:55:14;14.80;53.60
84393;DHT22;74592;48.846;2.358;2024-02-15T07:57:40;14.80;53.50
84393;DHT22;74592;48.846;2.358;2024-02-15T08:00:06;14.80;53.90
84393;DHT22;74592;48.846;2.358;2024-02-15T08:02:39;14.80;53.50
84393;DHT22;74592;48.846;2.358;2024-02-15T08:05:09;14.80;53.50
84393;DHT22;74592;48.846;2.358;2024-02-15T08:07:41;14.70;53.70
84393;DHT22;74592;48.846;2.358;2024-02-15T08:10:07;14.70;53.70
84393;DHT22;74592;48.846;2.358;2024-02-15T08:12:47;14.70;53.40
84393;DHT22;74592;48.846;2.358;2024-02-15T08:15:18;14.80;53.30
84393;DHT22;74592;48.846;2.358;2024-02-15T08:17:50;14.70;53.60
84393;DHT22;74592;48.846;2.358;2024-02-15T08:20:49;14.70;53.40
84393;DHT22;74592;48.846;2.358;2024-02-15T08:30:36;14.80;53.20
84393;DHT22;74592;48.846;2.358;2024-02-15T08:33:07;14.80;53.10
84393;DHT22;74592;48.846;2.358;2024-02-15T08:38:49;14.90;53.10
84393;DHT22;74592;48.846;2.358;2024-02-15T08:41:17;14.90;52.90
84393;DHT22;74592;48.846;2.358;2024-02-15T08:47:50;15.00;52.30
84393;DHT22;74592;48.846;2.358;2024-02-15T08:50:18;15.10;52.30
84393;DHT22;74592;48.846;2.358;2024-02-15T08:52:46;15.10;52.20
84393;DHT22;74592;48.846;2.358;2024-02-15T08:55:12;15.10;51.90
84393;DHT22;74592;48.846;2.358;2024-02-15T09:01:51;15.20;51.30
84393;DHT22;74592;48.846;2.358;2024-02-15T09:07:34;15.30;51.20
84393;DHT22;74592;48.846;2.358;2024-02-15T09:10:02;15.30;51.50
84393;DHT22;74592;48.846;2.358;2024-02-15T09:15:49;15.50;51.00
84393;DHT22;74592;48.846;2.358;2024-02-15T09:18:16;15.40;50.10
84393;DHT22;74592;48.846;2.358;2024-02-15T09:20:46;15.50;50.70
84393;DHT22;74592;48.846;2.358;2024-02-15T09:23:14;15.50;50.00
84393;DHT22;74592;48.846;2.358;2024-02-15T09:25:40;15.60;50.40
84393;DHT22;74592;48.846;2.358;2024-02-15T09:28:11;15.60;50.10
84393;DHT22;74592;48.846;2.358;2024-02-15T09:37:26;15.90;50.00
84393;DHT22;74592;48.846;2.358;2024-02-15T09:43:39;16.00;49.10
84393;DHT22;74592;48.846;2.358;2024-02-15T09:46:46;16.10;49.20
84393;DHT22;74592;48.846;2.358;2024-02-15T09:53:33;16.30;48.40
84393;DHT22;74592;48.846;2.358;2024-02-15T09:56:24;16.30;48.20
84393;DHT22;74592;48.846;2.358;2024-02-15T10:06:35;16.50;47.40
84393;DHT22;74592;48.846;2.358;2024-02-15T10:09:30;16.50;46.40
84393;DHT22;74592;48.846;2.358;2024-02-15T10:15:34;16.60;46.80
84393;DHT22;74592;48.846;2.358;2024-02-15T10:18:07;16.70;46.30
84393;DHT22;74592;48.846;2.358;2024-02-15T10:20:38;16.70;46.20
84393;DHT22;74592;48.846;2.358;2024-02-15T10:23:11;16.80;46.30
84393;DHT22;74592;48.846;2.358;2024-02-15T10:25:57;16.90;45.10
84393;DHT22;74592;48.846;2.358;2024-02-15T10:28:47;16.90;45.70
84393;DHT22;74592;48.846;2.358;2024-02-15T10:39:35;17.00;45.60
84393;DHT22;74592;48.846;2.358;2024-02-15T10:46:25;17.20;45.50
84393;DHT22;74592;48.846;2.358;2024-02-15T10:49:01;17.20;45.30
84393;DHT22;74592;48.846;2.358;2024-02-15T10:51:29;17.40;45.00
84393;DHT22;74592;48.846;2.358;2024-02-15T10:54:00;17.40;44.90
84393;DHT22;74592;48.846;2.358;2024-02-15T10:56:34;17.50;44.60
84393;DHT22;74592;48.846;2.358;2024-02-15T10:59:21;17.50;44.70
84393;DHT22;74592;48.846;2.358;2024-02-15T11:01:57;17.60;44.70
84393;DHT22;74592;48.846;2.358;2024-02-15T11:04:26;17.60;44.30
84393;DHT22;74592;48.846;2.358;2024-02-15T11:06:58;17.60;44.10
84393;DHT22;74592;48.846;2.358;2024-02-15T11:09:24;17.60;44.30
84393;DHT22;74592;48.846;2.358;2024-02-15T11:11:55;17.80;43.50
84393;DHT22;74592;48.846;2.358;2024-02-15T11:14:31;17.80;43.40
84393;DHT22;74592;48.846;2.358;2024-02-15T11:17:00;17.90;43.80
84393;DHT22;74592;48.846;2.358;2024-02-15T11:19:41;18.00;44.50
84393;DHT22;74592;48.846;2.358;2024-02-15T11:22:16;18.10;43.10
84393;DHT22;74592;48.846;2.358;2024-02-15T11:27:39;18.20;43.00
84393;DHT22;74592;48.846;2.358;2024-02-15T11:30:06;18.20;43.70
84393;DHT22;74592;48.846;2.358;2024-02-15T11:32:45;18.30;43.20
84393;DHT22;74592;48.846;2.358;2024-02-15T11:35:22;18.30;43.60
84393;DHT22;74592;48.846;2.358;2024-02-15T11:40:23;18.30;43.90
84393;DHT22;74592;48.846;2.358;2024-02-15T11:42:53;18.30;45.40
84393;DHT22;74592;48.846;2.358;2024-02-15T11:45:30;18.20;50.60
84393;DHT22;74592;48.846;2.358;2024-02-15T11:48:12;18.20;51.70
84393;DHT22;74592;48.846;2.358;2024-02-15T11:50:46;18.20;47.70
84393;DHT22;74592;48.846;2.358;2024-02-15T11:53:15;18.20;46.10
84393;DHT22;74592;48.846;2.358;2024-02-15T11:55:43;18.10;46.00
84393;DHT22;74592;48.846;2.358;2024-02-15T11:58:10;18.00;46.20
84393;DHT22;74592;48.846;2.358;2024-02-15T12:00:37;18.00;46.80
84393;DHT22;74592;48.846;2.358;2024-02-15T12:03:22;18.00;49.60
84393;DHT22;74592;48.846;2.358;2024-02-15T12:06:09;17.90;46.80
84393;DHT22;74592;48.846;2.358;2024-02-15T12:08:54;17.90;46.00
84393;DHT22;74592;48.846;2.358;2024-02-15T12:11:47;18.00;45.60
84393;DHT22;74592;48.846;2.358;2024-02-15T12:14:41;18.00;46.00
84393;DHT22;74592;48.846;2.358;2024-02-15T12:17:25;18.00;44.20
84393;DHT22;74592;48.846;2.358;2024-02-15T12:20:09;18.00;43.90
84393;DHT22;74592;48.846;2.358;2024-02-15T12:22:40;17.90;44.40
84393;DHT22;74592;48.846;2.358;2024-02-15T12:25:07;17.90;45.50
84393;DHT22;74592;48.846;2.358;2024-02-15T12:27:52;18.00;45.70
84393;DHT22;74592;48.846;2.358;2024-02-15T12:30:20;18.00;44.50
84393;DHT22;74592;48.846;2.358;2024-02-15T12:33:12;18.00;45.00
84393;DHT22;74592;48.846;2.358;2024-02-15T12:39:29;18.10;44.80
84393;DHT22;74592;48.846;2.358;2024-02-15T12:41:57;18.10;44.20
84393;DHT22;74592;48.846;2.358;2024-02-15T12:44:29;18.10;43.30
84393;DHT22;74592;48.846;2.358;2024-02-15T12:47:19;18.10;43.50
84393;DHT22;74592;48.846;2.358;2024-02-15T12:50:18;18.20;44.40
84393;DHT22;74592;48.846;2.358;2024-02-15T12:52:49;18.30;44.00
84393;DHT22;74592;48.846;2.358;2024-02-15T12:55:52;18.30;43.40
84393;DHT22;74592;48.846;2.358;2024-02-15T12:58:23;18.30;41.50
84393;DHT22;74592;48.846;2.358;2024-02-15T13:01:15;18.30;42.70
84393;DHT22;74592;48.846;2.358;2024-02-15T13:25:46;19.30;40.40
84393;DHT22;74592;48.846;2.358;2024-02-15T13:28:12;19.20;39.80
84393;DHT22;74592;48.846;2.358;2024-02-15T13:36:31;19.10;41.30
84393;DHT22;74592;48.846;2.358;2024-02-15T13:42:30;19.10;40.70
84393;DHT22;74592;48.846;2.358;2024-02-15T13:44:58;19.10;41.00
84393;DHT22;74592;48.846;2.358;2024-02-15T13:47:24;19.10;40.50
84393;DHT22;74592;48.846;2.358;2024-02-15T13:49:50;19.10;40.10
84393;DHT22;74592;48.846;2.358;2024-02-15T13:52:16;19.20;41.10
84393;DHT22;74592;48.846;2.358;2024-02-15T13:54:44;19.20;40.30
84393;DHT22;74592;48.846;2.358;2024-02-15T13:57:13;19.20;40.60
84393;DHT22;74592;48.846;2.358;2024-02-15T13:59:39;19.20;40.50
84393;DHT22;74592;48.846;2.358;2024-02-15T14:02:05;19.20;40.30
84393;DHT22;74592;48.846;2.358;2024-02-15T14:04:33;19.20;40.80
84393;DHT22;74592;48.846;2.358;2024-02-15T14:06:59;19.20;40.50
84393;DHT22;74592;48.846;2.358;2024-02-15T14:09:47;19.20;40.40
84393;DHT22;74592;48.846;2.358;2024-02-15T14:12:22;19.30;40.90
84393;DHT22;74592;48.846;2.358;2024-02-15T14:14:48;19.30;41.30
84393;DHT22;74592;48.846;2.358;2024-02-15T14:17:14;19.40;41.60
84393;DHT22;74592;48.846;2.358;2024-02-15T14:23:18;19.50;40.90
84393;DHT22;74592;48.846;2.358;2024-02-15T14:25:43;19.50;40.00
84393;DHT22;74592;48.846;2.358;2024-02-15T14:28:12;19.50;40.30
84393;DHT22;74592;48.846;2.358;2024-02-15T14:30:39;19.50;40.40
84393;DHT22;74592;48.846;2.358;2024-02-15T14:33:24;19.50;42.50
84393;DHT22;74592;48.846;2.358;2024-02-15T14:35:50;19.50;41.40
84393;DHT22;74592;48.846;2.358;2024-02-15T14:38:18;19.50;41.80
84393;DHT22;74592;48.846;2.358;2024-02-15T14:40:47;19.40;40.90
84393;DHT22;74592;48.846;2.358;2024-02-15T14:43:21;19.40;41.00
84393;DHT22;74592;48.846;2.358;2024-02-15T14:45:47;19.40;41.10
84393;DHT22;74592;48.846;2.358;2024-02-15T14:48:14;19.40;41.40
84393;DHT22;74592;48.846;2.358;2024-02-15T14:50:55;19.40;41.60
84393;DHT22;74592;48.846;2.358;2024-02-15T14:53:23;19.30;40.40
84393;DHT22;74592;48.846;2.358;2024-02-15T14:55:49;19.30;40.90
84393;DHT22;74592;48.846;2.358;2024-02-15T14:58:36;19.20;41.20
84393;DHT22;74592;48.846;2.358;2024-02-15T15:01:02;19.30;43.00
84393;DHT22;74592;48.846;2.358;2024-02-15T15:03:31;19.30;40.30
84393;DHT22;74592;48.846;2.358;2024-02-15T15:06:11;19.30;41.00
84393;DHT22;74592;48.846;2.358;2024-02-15T15:08:55;19.30;40.40
84393;DHT22;74592;48.846;2.358;2024-02-15T15:12:02;19.30;39.20
84393;DHT22;74592;48.846;2.358;2024-02-15T15:14:46;19.30;39.30
84393;DHT22;74592;48.846;2.358;2024-02-15T15:17:13;19.20;39.50
84393;DHT22;74592;48.846;2.358;2024-02-15T15:19:41;19.20;38.80
84393;DHT22;74592;48.846;2.358;2024-02-15T15:22:07;19.20;38.90
84393;DHT22;74592;48.846;2.358;2024-02-15T15:24:32;19.20;38.20
84393;DHT22;74592;48.846;2.358;2024-02-15T15:26:59;19.20;38.00
84393;DHT22;74592;48.846;2.358;2024-02-15T15:29:26;19.20;39.90
84393;DHT22;74592;48.846;2.358;2024-02-15T15:31:52;19.10;40.00
84393;DHT22;74592;48.846;2.358;2024-02-15T15:34:18;19.10;39.90
84393;DHT22;74592;48.846;2.358;2024-02-15T15:36:45;19.10;40.30
84393;DHT22;74592;48.846;2.358;2024-02-15T15:39:22;19.10;40.00
84393;DHT22;74592;48.846;2.358;2024-02-15T15:41:58;19.10;40.80
84393;DHT22;74592;48.846;2.358;2024-02-15T15:44:23;19.00;41.00
84393;DHT22;74592;48.846;2.358;2024-02-15T15:47:17;19.00;41.20
84393;DHT22;74592;48.846;2.358;2024-02-15T15:50:12;19.00;41.80
84393;DHT22;74592;48.846;2.358;2024-02-15T15:52:38;18.90;41.30
84393;DHT22;74592;48.846;2.358;2024-02-15T15:55:05;18.90;41.80
84393;DHT22;74592;48.846;2.358;2024-02-15T16:01:02;18.90;41.80
84393;DHT22;74592;48.846;2.358;2024-02-15T16:03:31;18.90;41.60
84393;DHT22;74592;48.846;2.358;2024-02-15T16:05:56;18.90;42.30
84393;DHT22;74592;48.846;2.358;2024-02-15T16:08:22;18.90;42.40
84393;DHT22;74592;48.846;2.358;2024-02-15T16:10:48;18.90;42.20
84393;DHT22;74592;48.846;2.358;2024-02-15T16:13:14;18.90;42.30
84393;DHT22;74592;48.846;2.358;2024-02-15T16:16:19;18.80;42.30
84393;DHT22;74592;48.846;2.358;2024-02-15T16:18:44;18.80;42.40
84393;DHT22;74592;48.846;2.358;2024-02-15T16:21:09;18.70;42.60
84393;DHT22;74592;48.846;2.358;2024-02-15T16:23:35;18.70;42.60
84393;DHT22;74592;48.846;2.358;2024-02-15T16:26:01;18.70;42.80
84393;DHT22;74592;48.846;2.358;2024-02-15T16:28:27;18.70;42.90
84393;DHT22;74592;48.846;2.358;2024-02-15T16:30:52;18.70;43.00
84393;DHT22;74592;48.846;2.358;2024-02-15T16:33:18;18.70;43.30
84393;DHT22;74592;48.846;2.358;2024-02-15T16:35:45;18.70;43.00
84393;DHT22;74592;48.846;2.358;2024-02-15T16:40:58;18.60;43.40
84393;DHT22;74592;48.846;2.358;2024-02-15T16:43:25;18.60;44.00
84393;DHT22;74592;48.846;2.358;2024-02-15T16:45:50;18.70;43.90
84393;DHT22;74592;48.846;2.358;2024-02-15T16:48:20;18.60;43.50
84393;DHT22;74592;48.846;2.358;2024-02-15T16:50:47;18.60;44.30
84393;DHT22;74592;48.846;2.358;2024-02-15T16:53:14;18.60;44.20
84393;DHT22;74592;48.846;2.358;2024-02-15T16:55:41;18.60;43.80
84393;DHT22;74592;48.846;2.358;2024-02-15T16:58:13;18.60;44.20
84393;DHT22;74592;48.846;2.358;2024-02-15T17:00:45;18.50;44.30
84393;DHT22;74592;48.846;2.358;2024-02-15T17:06:19;18.40;44.00
84393;DHT22;74592;48.846;2.358;2024-02-15T17:08:45;18.40;44.40
84393;DHT22;74592;48.846;2.358;2024-02-15T17:11:13;18.40;44.50
84393;DHT22;74592;48.846;2.358;2024-02-15T17:13:39;18.30;44.60
84393;DHT22;74592;48.846;2.358;2024-02-15T17:16:10;18.30;45.20
84393;DHT22;74592;48.846;2.358;2024-02-15T17:18:39;18.30;44.90
84393;DHT22;74592;48.846;2.358;2024-02-15T17:21:06;18.30;44.60
84393;DHT22;74592;48.846;2.358;2024-02-15T17:23:33;18.30;45.00
84393;DHT22;74592;48.846;2.358;2024-02-15T17:25:58;18.30;45.30
84393;DHT22;74592;48.846;2.358;2024-02-15T17:28:24;18.30;44.90
84393;DHT22;74592;48.846;2.358;2024-02-15T17:30:56;18.30;44.80
84393;DHT22;74592;48.846;2.358;2024-02-15T17:33:23;18.30;45.00
84393;DHT22;74592;48.846;2.358;2024-02-15T17:35:48;18.30;45.10
84393;DHT22;74592;48.846;2.358;2024-02-15T17:38:16;18.30;44.90
84393;DHT22;74592;48.846;2.358;2024-02-15T17:40:42;18.30;44.80
84393;DHT22;74592;48.846;2.358;2024-02-15T17:43:08;18.20;45.00